Bei Facebook empfehlenBei Twitter postenGoogle plusPinterest

Das Wetter im Erzgebirge am 09.03.2016

Wetter und Klima am 09.03.2016 Holzhau im Erzgebirge (630m ü.NN)
Letzte gemessene Temperatur und Uhrzeit der Messung23:45:00 Uhr0.30 °C
Temperatur (Maximum / Höchstwert) und Uhrzeit der Messung12:00:00 Uhr4.30 °C
Temperatur (Minimum / Tiefstwert) und Uhrzeit der Messung06:30:00-7.40 °C
Errechneter Absolutwert der Temperaturschwankungen zwischen Tmin und Tmax des Tages11.70 K
Errechnete Tagesmitteltemperatur-1.55729 °C
Gesamt - Niederschlag des Tages (in flüssiger Form)0.51 Liter / m²
Luftdruck (Maximum / Höchstwert) und Zeitpunkt der Messung00:30:00 Uhr1012.20 hPa
Luftdruck (Minimum / Tiefstwert) und Zeitpunkt der Messung18:00:00 Uhr1006.60 hPa
Errechneter Absolutwert der Luftdruckschwankungen des Tages5.60 hPa
Höchste gemessene Windgeschwindigkeit und Uhrzeit der Messung14:15:00 Uhr16.56 km/h
Errechnete Windhäufigkeit in Relation zu den Messwerten des Tages39.58333 %
Niedrigste Windkühle (Windchill) und Zeitpunkt der Messung06:30:00 Uhr-12.50 °C
Taupunkt (Maximum / Höchstwert) und Uhrzeit der Messung10:30:00 Uhr1.70 °C
Taupunkt (Minimum / Tiefstwert) und Uhrzeit der Messung06:30:00-8.80 °C
Anzahl der automatisch eingelesenen Messwerte 96

Detaillierte Wetter- und Klima- Messwerte für den 09.03.2016 in Holzhau im Erzgebirge (630m ü.NN)
ZeitTemperaturLuftdruckRel. LuftfeuchteWindWindrichtungWindchillTaupunktNiederschlag l/m²
23:45:000.30 °C1007.20 hPa87.00 %-1.60 °C0.51
23:30:000.30 °C1007.00 hPa87.00 %-1.60 °C0.51
23:15:000.40 °C1007.00 hPa87.00 %-1.50 °C0.51
23:00:000.40 °C1007.00 hPa87.00 %-1.50 °C0.51
22:45:000.40 °C1006.80 hPa87.00 %-1.50 °C0.51
22:30:000.40 °C1007.00 hPa87.00 %4.32 km/hNO0.40 °C-1.50 °C0.51
22:15:000.50 °C1007.00 hPa87.00 %1.44 km/hOSO0.50 °C-1.40 °C0.51
22:00:000.50 °C1007.00 hPa87.00 %-1.40 °C0.51
21:45:000.40 °C1006.90 hPa87.00 %-1.50 °C0.51
21:30:000.40 °C1006.90 hPa86.00 %-1.70 °C0.51
21:15:000.40 °C1006.80 hPa86.00 %-1.70 °C0.51
21:00:000.40 °C1006.80 hPa86.00 %-1.70 °C0.51
20:45:000.40 °C1006.80 hPa86.00 %-1.70 °C0.51
20:30:000.40 °C1006.80 hPa86.00 %5.76 km/hSSO-1.50 °C-1.70 °C0.51
20:15:000.40 °C1006.80 hPa86.00 %-1.70 °C0.51
20:00:000.40 °C1006.80 hPa86.00 %-1.70 °C0.51
19:45:000.40 °C1006.70 hPa86.00 %-1.70 °C0.51
19:30:000.30 °C1006.90 hPa85.00 %-1.90 °C0.51
19:15:000.20 °C1006.70 hPa85.00 %10.44 km/hSO-3.20 °C-2.00 °C0.51
19:00:000.20 °C1006.70 hPa85.00 %-2.00 °C0.51
18:45:000.20 °C1006.80 hPa85.00 %-2.00 °C0.51
18:30:000.10 °C1006.80 hPa84.00 %-2.30 °C0.51
18:15:00-0.10 °C1006.70 hPa84.00 %2.16 km/hOSO-0.10 °C-2.80 °C0.51
18:00:00-0.10 °C1006.60 hPa84.00 %-2.80 °C0.51
17:45:000.10 °C1006.70 hPa83.00 %1.44 km/hSO0.10 °C-2.40 °C0.51
17:30:000.10 °C1006.70 hPa83.00 %4.32 km/hSSO0.10 °C-2.40 °C0.51
17:15:000.30 °C1006.80 hPa82.00 %5.04 km/hSO-1.30 °C-2.40 °C0.51
17:00:000.50 °C1006.70 hPa81.00 %-2.40 °C0.51
16:45:000.80 °C1006.90 hPa81.00 %5.76 km/hOSO-1.00 °C-2.10 °C0.51
16:30:001.10 °C1006.90 hPa80.00 %-2.00 °C0.51
16:15:001.30 °C1007.10 hPa80.00 %-1.80 °C0.51
16:00:001.30 °C1007.20 hPa79.00 %-1.90 °C0.51
15:45:001.40 °C1007.50 hPa78.00 %2.16 km/hS1.40 °C-2.00 °C0.51
15:30:002.20 °C1007.50 hPa78.00 %14.04 km/hSO-1.50 °C-1.20 °C0.51
15:15:002.10 °C1007.50 hPa78.00 %1.80 km/hSO2.10 °C-1.30 °C0.51
15:00:002.10 °C1007.70 hPa79.00 %6.84 km/hOSO0.10 °C-1.20 °C0.51
14:45:001.90 °C1008.00 hPa80.00 %10.08 km/hSSO-1.10 °C-1.20 °C0.51
14:30:001.60 °C1008.10 hPa80.00 %8.64 km/hSO-1.00 °C-1.50 °C0.51
14:15:001.40 °C1008.20 hPa80.00 %16.56 km/hSO-3.00 °C-1.70 °C0.51
14:00:001.60 °C1008.20 hPa79.00 %-1.60 °C0.51
13:45:002.10 °C1008.40 hPa79.00 %9.72 km/hOSO-0.70 °C-1.20 °C0.51
13:30:002.10 °C1008.40 hPa77.00 %-1.50 °C0.51
13:15:003.60 °C1008.70 hPa77.00 %9.36 km/hOSO1.10 °C0.00 °C0.51
13:00:003.90 °C1008.80 hPa78.00 %8.28 km/hSO1.80 °C0.40 °C0.51
12:45:003.80 °C1008.90 hPa77.00 %11.52 km/hSO0.90 °C0.10 °C0.51
12:30:003.90 °C1009.00 hPa78.00 %0.40 °C0.51
12:15:004.20 °C1009.20 hPa79.00 %3.96 km/hSO4.20 °C0.90 °C0.51
12:00:004.30 °C1008.90 hPa81.00 %9.00 km/hS2.10 °C1.30 °C0.51
11:45:003.80 °C1008.90 hPa83.00 %1.20 °C0.51
11:30:003.40 °C1009.10 hPa84.00 %7.92 km/hSO1.30 °C1.00 °C0.51
11:15:003.40 °C1009.30 hPa87.00 %7.92 km/hSSW1.30 °C1.40 °C0.51
11:00:002.60 °C1009.20 hPa88.00 %2.52 km/hSSO2.60 °C0.80 °C0.51
10:45:002.90 °C1009.20 hPa90.00 %1.40 °C0.51
10:30:002.90 °C1009.40 hPa92.00 %4.32 km/hO2.90 °C1.70 °C0.51
10:15:002.10 °C1009.50 hPa92.00 %4.68 km/hSO2.10 °C0.90 °C0.51
10:00:001.60 °C1009.60 hPa93.00 %0.60 °C 
09:45:001.10 °C1009.70 hPa93.00 %0.10 °C 
09:30:000.60 °C1009.70 hPa93.00 %-0.40 °C 
09:15:00-0.40 °C1009.90 hPa93.00 %-1.50 °C 
09:00:00-1.50 °C1009.80 hPa93.00 %-2.60 °C 
08:45:00-2.80 °C1009.90 hPa92.00 %-4.00 °C 
08:30:00-4.10 °C1010.00 hPa92.00 %-5.30 °C 
08:15:00-5.00 °C1010.10 hPa92.00 %-6.20 °C 
08:00:00-5.70 °C1010.10 hPa91.00 %-7.10 °C 
07:45:00-6.70 °C1010.00 hPa91.00 %-8.10 °C 
07:30:00-7.10 °C1010.20 hPa91.00 %-8.50 °C 
07:15:00-7.20 °C1010.40 hPa91.00 %2.52 km/hOSO-7.20 °C-8.60 °C 
07:00:00-7.10 °C1010.50 hPa91.00 %-8.50 °C 
06:45:00-7.20 °C1010.60 hPa91.00 %7.92 km/hOSO-11.20 °C-8.60 °C 
06:30:00-7.40 °C1010.60 hPa91.00 %11.16 km/hOSO-12.50 °C-8.80 °C 
06:15:00-7.30 °C1010.70 hPa91.00 %7.92 km/hO-11.30 °C-8.70 °C 
06:00:00-7.30 °C1010.60 hPa90.00 %6.48 km/hOSO-10.70 °C-8.80 °C 
05:45:00-7.30 °C1010.70 hPa90.00 %4.32 km/hOSO-7.30 °C-8.80 °C 
05:30:00-7.20 °C1010.70 hPa90.00 %1.44 km/hSO-7.20 °C-8.70 °C 
05:15:00-6.90 °C1010.80 hPa91.00 %2.16 km/hSO-6.90 °C-8.30 °C 
05:00:00-6.80 °C1010.80 hPa91.00 %-8.20 °C 
04:45:00-6.90 °C1010.80 hPa91.00 %-8.30 °C 
04:30:00-6.90 °C1011.00 hPa91.00 %-8.30 °C 
04:15:00-6.90 °C1010.90 hPa91.00 %3.24 km/hSO-6.90 °C-8.30 °C 
04:00:00-6.90 °C1011.10 hPa90.00 %-8.40 °C 
03:45:00-6.70 °C1010.90 hPa90.00 %-8.20 °C 
03:30:00-6.40 °C1011.00 hPa90.00 %2.88 km/hOSO-6.40 °C-7.90 °C 
03:15:00-6.60 °C1011.10 hPa90.00 %-8.10 °C 
03:00:00-6.60 °C1011.20 hPa90.00 %-8.10 °C 
02:45:00-6.40 °C1011.30 hPa90.00 %-7.90 °C 
02:30:00-6.20 °C1011.40 hPa90.00 %-7.70 °C 
02:15:00-6.10 °C1011.50 hPa90.00 %2.88 km/hO-6.10 °C-7.60 °C 
02:00:00-6.10 °C1011.70 hPa90.00 %-7.60 °C 
01:45:00-5.90 °C1012.10 hPa90.00 %-7.40 °C 
01:30:00-6.10 °C1012.10 hPa89.00 %-7.80 °C 
01:15:00-5.90 °C1012.00 hPa90.00 %-7.40 °C 
01:00:00-5.70 °C1012.10 hPa90.00 %-7.20 °C 
00:45:00-5.60 °C1012.10 hPa90.00 %-7.10 °C 
00:30:00-5.50 °C1012.20 hPa90.00 %-7.00 °C 
00:15:00-5.50 °C1012.20 hPa89.00 %-7.20 °C 
00:00:00-5.30 °C1012.20 hPa89.00 %-7.00 °C 

Permanenter Link zu dieser Seite: Wetter im Erzgebirge am 09.03.2016
Performance-Info: Die Erstellung der Seite / Statistik(en) / Tabelle(n) erforderte 5 Datenbankserver-Abfrage(n) und dauerte 121 Millisekunden. (Dieser Messwert ist von der Gesamt-Auslastung des Servers abhängig.)
Erzgebirge - Wetter | Erzgebirge - Wetter (Mobilgeräte) | Komplette Klimadatenbank